Etusivu
METAR-TAF:

METAR-TAF

Lentoasemat :

Tahiti, Ranskan Polynesia

Faa'an kansainvälinen lentoasema

Leveyspiiri: 17-33S, Pituuspiiri: 149-37W, korkeus merenpinnasta: 2 m

Tämänhetkinen sää

Tämä raportti tehtiin 15 minuuttia sitten, kello 06.30 UTC
Tuuli 3 kn pohjoisesta
Lämpötila 27°C
Kosteus 74%
Ilmanpaine 1017 hPa
Näkyvyys 10 km tai enemmän
Muutamia pilviä 2300 ft:n korkeudessa
Hajanaisia pilviä 13000 ft:n korkeudessa

METAR: NTAA 280630Z 35003KT 9999 FEW023 SCT130 27/22 Q1017 NOSIG

Aika: 20:45 (06:45 UTC)

Sääennuste

Tämä raportti tehtiin 1 tunti ja 45 minuuttia sitten, kello 05.00 UTC
Ennuste voimassa 28. päivästä klo 06 UTC - 29. päivään klo 12 UTC
Tuuli 5 kn lounaasta
Näkyvyys 10 km tai enemmän
Muutamia pilviä 2300 ft:n korkeudessa
Hajanaisia pilviä 5000 ft:n korkeudessa

TAF: NTAA 280500Z 2806/2912 22005KT 9999 FEW023 SCT050

Säähavainnot ja -ennusteet yli 4000 lentoasemalta (METAR- ja TAF-raportit).

Käytössä olevat sääasemat on merkitty karttaan keltaisilla ja punaisilla pisteillä.

Aseta hiiri pisteen päälle nähdäksesi sääaseman nimen.

Klikkaa sitten nähdäksesi säähavainnot ja -ennusteet.

Kartan vaihtaminen: klikkaa mustalla rastilla varustettuja vihreitä pisteitä, niin voit zoomata sisään; viivalla varustettua vihreää pistettä, niin voit zoomata ulos tai vihreitä nuolia, niin pääset viereisille kartoille.


METAR-TAF: